Latest Weather Observations for Townsville

IDQ60801

Issued at 2:02 pm EST Saturday 7 March 2015 (issued every 30 minutes, with the page automatically refreshed every 10 minutes)

About weather observations | Map of weather stations | Latest weather observations for QLD | Other Formats
Station Details ID: 032040 Name: TOWNSVILLE AERO Lat: -19.25 Lon: 146.77 Height: 4.34 m
Data from the previous 72 hours. | See also: Recent months at Townsville
Date/Time
EST
Temp
°C
App
Temp
°C
Dew
Point
Rel
Hum
%
Delta-T
°C
Wind Press
QNH
hPa
Press
MSL
hPa
Rain
since 9 am
mm
Dir
 
Spd
km/h
Gust
km/h
Spd
kts
Gust
kts
07/02:00pm 32.2 32.5 22.9 58 6.4 NE 26 32 14 17 1006.0 - 0.0
07/01:30pm 32.5 32.9 23.1 57 6.5 NE 26 32 14 17 1006.5 - 0.0
07/01:00pm 32.8 33.4 22.1 53 7.3 ENE 22 30 12 16 1006.8 - 0.0
07/12:30pm 32.7 34.0 22.6 55 6.9 NE 20 28 11 15 1007.2 - 0.0
07/12:00pm 32.1 33.5 22.6 57 6.5 NE 19 28 10 15 1007.5 1007.4 0.0
07/11:00am 32.3 34.1 23.2 58 6.3 ENE 19 26 10 14 1007.9 - 0.0
07/10:30am 31.7 33.4 23.0 60 6.0 ENE 19 26 10 14 1007.7 - 0.0
07/10:00am 31.1 33.3 23.3 63 5.4 E 17 28 9 15 1008.0 - 0.0
07/09:30am 30.6 33.2 23.3 65 5.0 E 15 24 8 13 1007.8 - 0.0
07/09:00am 29.7 33.1 24.1 72 3.9 ENE 13 17 7 9 1007.9 1007.8 0.0
07/08:30am 30.4 34.7 24.2 69 4.3 SE 9 15 5 8 1007.4 - 0.0
07/08:00am 29.3 32.8 23.5 71 4.0 SSE 11 15 6 8 1007.0 - 0.0
07/07:30am 28.2 32.9 23.4 75 3.3 SSW 4 11 2 6 1006.5 - 0.0
07/07:00am 26.3 30.9 23.8 86 1.7 SW 6 7 3 4 1005.7 - 0.0
07/06:30am 26.1 31.5 23.3 84 1.9 CALM 0 0 0 0 1005.2 - 0.0
07/05:30am 25.4 31.2 23.9 91 1.0 CALM 0 0 0 0 1004.4 - 0.0
07/05:00am 25.6 31.4 24.0 91 1.1 CALM 0 0 0 0 1004.1 - 0.0
07/04:30am 26.3 32.3 24.3 89 1.4 CALM 0 0 0 0 1004.3 - 0.0
07/04:00am 26.4 32.3 24.1 87 1.6 CALM 0 0 0 0 1004.6 - 0.0
07/03:30am 26.5 31.3 24.5 89 1.4 N 7 9 4 5 1005.0 - 0.0
07/03:00am 26.5 31.8 24.3 88 1.5 SW 4 11 2 6 1005.5 1005.4 0.0
07/02:30am 27.4 32.2 24.2 83 2.2 S 6 9 3 5 1005.6 - 0.0
07/02:00am 27.6 33.6 24.3 82 2.3 CALM 0 0 0 0 1006.2 - 0.0
07/01:30am 27.4 31.8 24.4 84 2.1 SE 9 9 5 5 1006.3 - 0.0
07/01:00am 27.5 31.6 24.5 84 2.1 SE 11 13 6 7 1006.7 - 0.0
07/12:30am 28.0 31.7 24.5 81 2.4 SE 13 19 7 10 1007.3 - 0.0
07/12:00am 28.6 32.3 24.6 79 2.8 SE 13 17 7 9 1007.3 1007.2 0.0
 
Date/Time
EST
Temp
°C
App
Temp
°C
Dew
Point
Rel
Hum
%
Delta-T
°C
Wind Press
QNH
hPa
Press
MSL
hPa
Rain
since 9 am
mm
Dir
 
Spd
km/h
Gust
km/h
Spd
kts
Gust
kts
06/11:30pm 27.6 31.8 24.1 81 2.4 ENE 9 11 5 6 1006.5 - 0.0
06/11:00pm 28.2 32.6 24.5 80 2.6 N 9 9 5 5 1006.9 - 0.0
06/10:30pm 28.3 32.4 24.6 80 2.6 NNE 11 15 6 8 1006.6 - 0.0
06/10:00pm 28.2 31.8 24.3 79 2.7 N 13 15 7 8 1005.9 - 0.0
06/09:30pm 28.5 31.8 23.9 76 3.2 N 13 15 7 8 1005.8 - 0.0
06/09:00pm 28.6 33.5 24.4 78 2.9 N 6 9 3 5 1006.2 1006.1 0.0
06/08:30pm 28.3 33.4 24.6 80 2.6 NNW 6 9 3 5 1006.0 - 0.0
06/08:00pm 28.9 33.4 24.6 77 3.0 NE 9 11 5 6 1006.0 - 0.0
06/07:30pm 29.1 33.5 24.4 76 3.3 ESE 9 11 5 6 1006.2 - 0.0
06/07:00pm 29.2 32.7 24.2 74 3.5 ENE 13 17 7 9 1004.7 - 0.0
06/06:30pm 29.6 32.1 24.4 73 3.6 ENE 19 22 10 12 1003.6 - 0.0
06/06:00pm 30.3 32.9 24.0 69 4.4 ENE 17 20 9 11 1003.5 1003.4 0.0
06/05:30pm 31.2 34.1 23.9 65 5.1 NE 15 20 8 11 1003.0 - 0.0
06/05:00pm 31.9 33.8 23.4 60 5.9 NNE 19 26 10 14 1003.0 - 0.0
06/04:30pm 33.1 34.8 23.1 55 6.9 ENE 19 26 10 14 1003.0 - 0.0
06/04:00pm 33.3 34.9 23.2 55 7.0 ENE 20 28 11 15 1002.7 - 0.0
06/03:30pm 33.4 35.2 23.3 55 7.0 ENE 19 24 10 13 1002.7 - 0.0
06/03:00pm 34.0 35.8 23.2 53 7.5 ENE 19 24 10 13 1002.9 1002.8 0.0
06/02:30pm 34.2 35.8 22.2 49 8.2 ENE 17 20 9 11 1003.3 - 0.0
06/02:00pm 34.6 36.4 21.8 47 8.7 NE 15 22 8 12 1003.5 - 0.0
06/01:30pm 34.1 35.5 21.8 48 8.4 NE 17 22 9 12 1004.0 - 0.0
06/01:00pm 34.6 35.0 21.8 47 8.7 ENE 22 30 12 16 1004.4 - 0.0
06/12:30pm 34.9 35.9 21.7 46 9.0 NE 19 26 10 14 1004.8 - 0.0
06/12:00pm 33.7 33.8 21.1 47 8.5 NE 22 28 12 15 1005.3 1005.2 0.0
06/11:30am 33.4 34.4 22.8 53 7.3 NE 22 32 12 17 1005.8 - 0.0
06/11:00am 33.1 36.2 22.1 52 7.5 WNW 9 15 5 8 1006.1 - 0.0
06/10:30am 33.5 36.8 21.5 49 8.1 NNW 6 13 3 7 1006.6 - 0.0
06/10:00am 31.3 33.9 22.0 57 6.3 NW 11 15 6 8 1006.8 - 0.0
06/09:30am 30.7 34.3 23.8 66 4.8 NNW 11 19 6 10 1006.9 - 0.0
06/09:00am 29.7 34.0 24.2 72 3.8 WNW 9 15 5 8 1006.8 1006.7 0.0
06/08:30am 28.9 33.2 24.3 76 3.2 NW 9 15 5 8 1006.7 - 0.0
06/08:00am 27.6 33.6 24.3 82 2.3 CALM 0 0 0 0 1006.6 - 0.0
06/07:30am 27.0 31.8 24.1 84 2.0 W 6 7 3 4 1006.3 - 0.0
06/07:00am 26.9 31.5 24.1 85 1.9 W 7 9 4 5 1006.3 - 0.0
06/06:30am 26.3 30.4 24.0 87 1.6 WSW 9 11 5 6 1005.9 - 0.0
06/06:00am 26.4 32.2 23.9 86 1.7 CALM 0 0 0 0 1005.7 1005.6 0.0
06/05:30am 26.3 32.1 24.0 87 1.6 CALM 0 0 0 0 1005.3 - 0.0
06/05:00am 26.3 30.7 23.8 86 1.7 W 7 7 4 4 1005.3 - 0.0
06/04:30am 26.6 32.0 23.8 84 1.9 W 2 7 1 4 1005.3 - 0.0
06/04:12am 27.1 33.0 24.1 84 2.1 CALM 0 0 0 0 1005.2 - 0.0
06/04:00am 27.2 32.4 24.2 84 2.1 W 4 7 2 4 1005.3 - 0.0
06/03:30am 27.2 31.1 24.3 84 2.0 W 11 11 6 6 1005.4 - 0.0
06/03:27am 27.2 31.5 24.3 84 2.0 W 9 11 5 6 1005.3 - 0.0
06/03:00am 27.7 32.5 24.5 83 2.2 NNE 7 9 4 5 1005.5 1005.4 0.0
06/02:30am 27.5 32.2 24.3 83 2.2 NNE 7 9 4 5 1005.8 - 0.0
06/02:00am 27.6 31.9 24.3 82 2.3 NNE 9 11 5 6 1006.2 - 0.0
06/01:30am 27.7 31.5 24.1 81 2.5 N 11 13 6 7 1006.6 - 0.0
06/01:00am 27.6 31.5 24.3 82 2.3 N 11 13 6 7 1007.0 - 0.0
06/12:30am 27.7 32.1 24.4 82 2.3 N 9 11 5 6 1007.2 - 0.0
06/12:00am 27.4 31.7 24.2 83 2.2 N 9 11 5 6 1007.5 1007.4 0.0
 
Date/Time
EST
Temp
°C
App
Temp
°C
Dew
Point
Rel
Hum
%
Delta-T
°C
Wind Press
QNH
hPa
Press
MSL
hPa
Rain
since 9 am
mm
Dir
 
Spd
km/h
Gust
km/h
Spd
kts
Gust
kts
05/11:30pm 27.5 31.8 24.2 82 2.3 N 9 9 5 5 1007.9 - 0.0
05/11:00pm 27.8 32.5 24.0 80 2.6 N 6 9 3 5 1007.8 - 0.0
05/10:30pm 28.0 33.8 23.9 78 2.8 CALM 0 0 0 0 1007.8 - 0.0
05/10:00pm 28.1 32.6 23.7 77 3.0 N 6 7 3 4 1007.8 - 0.0
05/09:30pm 28.1 32.4 23.7 77 3.0 N 7 9 4 5 1007.4 - 0.0
05/09:00pm 28.0 32.4 23.8 78 2.9 N 7 9 4 5 1007.2 1007.1 0.0
05/08:30pm 28.2 32.6 23.8 77 3.0 NNW 7 9 4 5 1007.1 - 0.0
05/08:00pm 28.4 34.1 23.8 76 3.2 CALM 0 0 0 0 1006.9 - 0.0
05/07:30pm 29.0 33.1 23.3 71 3.9 ENE 7 9 4 5 1006.6 - 0.0
05/07:00pm 28.9 32.7 23.5 72 3.7 ENE 9 11 5 6 1006.4 - 0.0
05/06:30pm 29.2 31.9 23.5 71 3.9 ENE 15 19 8 10 1006.1 - 0.0
05/06:00pm 29.8 32.6 23.6 69 4.3 ENE 15 19 8 10 1006.1 1006.0 0.0
05/05:30pm 29.7 32.1 23.6 69 4.2 ENE 17 20 9 11 1006.0 - 0.0
05/05:00pm 30.3 31.9 23.3 66 4.8 ENE 20 26 11 14 1006.1 - 0.0
05/04:30pm 30.8 32.2 22.9 62 5.4 ENE 20 26 11 14 1006.1 - 0.0
05/04:00pm 30.2 31.5 22.6 63 5.2 ENE 20 26 11 14 1006.4 - 0.0
05/03:30pm 30.5 32.0 23.1 64 5.1 ENE 20 28 11 15 1006.4 - 0.0
05/03:00pm 30.4 31.3 23.3 66 4.9 ENE 24 30 13 16 1006.7 1006.6 0.0
05/02:30pm 31.2 32.1 23.4 63 5.4 ENE 24 28 13 15 1007.0 - 0.0
05/02:00pm 31.9 32.7 22.4 57 6.5 ENE 22 28 12 15 1007.4 - 0.0
05/01:30pm 31.5 31.9 23.1 61 5.8 ENE 26 32 14 17 1008.0 - 0.0
05/01:00pm 32.3 32.9 22.8 57 6.5 NE 24 32 13 17 1008.4 - 0.0
05/12:30pm 32.1 33.5 22.8 58 6.4 NE 20 26 11 14 1008.9 - 0.0
05/12:00pm 31.7 32.5 21.8 55 6.7 NE 20 28 11 15 1009.4 1009.3 0.0
05/11:30am 31.6 32.9 22.4 58 6.3 ENE 19 26 10 14 1010.0 - 0.0
05/11:00am 31.6 33.0 22.9 60 6.0 NE 20 28 11 15 1010.5 - 0.0
05/10:30am 31.6 33.2 22.2 57 6.4 ENE 17 24 9 13 1011.0 - 0.0
05/10:00am 31.1 32.4 22.3 59 6.0 E 19 26 10 14 1011.1 - 0.0
05/09:30am 31.4 33.0 22.1 57 6.3 ESE 17 24 9 13 1011.0 - 0.0
05/09:00am 29.7 32.0 22.7 66 4.8 ESE 15 20 8 11 1011.0 1010.9 0.0
05/08:30am 29.8 32.5 22.9 66 4.7 SE 13 19 7 10 1010.8 - 0.0
05/08:00am 28.8 32.4 23.1 71 3.9 S 9 13 5 7 1010.6 - 0.0
05/07:30am 27.7 32.2 23.0 75 3.2 SSW 4 9 2 5 1010.6 - 0.0
05/07:00am 26.2 30.1 23.0 82 2.2 S 7 11 4 6 1010.0 - 0.0
05/06:38am 25.7 30.2 22.9 84 1.9 SSW 4 7 2 4 1009.8 - 0.0
05/06:30am 25.5 30.4 23.0 86 1.7 SSW 2 7 1 4 1009.7 - 0.0
05/06:00am 25.5 30.8 23.1 86 1.6 CALM 0 0 0 0 1009.3 1009.2 0.0
05/05:30am 25.2 29.3 23.0 87 1.5 SSW 6 9 3 5 1009.0 - 0.0
05/05:00am 25.5 29.8 22.7 84 1.9 SW 4 11 2 6 1008.7 - 0.0
05/04:30am 24.8 28.6 22.7 88 1.4 W 7 9 4 5 1008.4 - 0.0
05/04:00am 25.5 30.6 22.7 84 1.9 CALM 0 0 0 0 1008.5 - 0.0
05/03:30am 25.5 29.3 22.8 85 1.8 SE 7 9 4 5 1008.5 - 0.0
05/03:00am 25.7 30.9 22.9 84 1.9 CALM 0 0 0 0 1008.7 1008.6 0.0
05/02:30am 26.2 30.1 23.0 82 2.2 SE 7 9 4 5 1009.0 - 0.0
05/02:00am 26.2 29.8 23.1 83 2.1 SE 9 13 5 7 1009.2 - 0.0
05/01:30am 26.4 30.1 23.2 82 2.2 SE 9 11 5 6 1009.5 - 0.0
05/01:00am 26.7 29.6 23.2 81 2.4 SE 13 13 7 7 1009.9 - 0.0
05/12:30am 26.9 30.1 23.1 80 2.6 SE 11 13 6 7 1010.2 - 0.0
05/12:00am 26.9 30.1 23.1 80 2.6 S 11 13 6 7 1010.5 1010.4 0.0
 
Date/Time
EST
Temp
°C
App
Temp
°C
Dew
Point
Rel
Hum
%
Delta-T
°C
Wind Press
QNH
hPa
Press
MSL
hPa
Rain
since 9 am
mm
Dir
 
Spd
km/h
Gust
km/h
Spd
kts
Gust
kts
04/11:30pm 27.3 31.2 23.0 77 2.9 SE 7 13 4 7 1010.8 - 0.0
04/11:00pm 27.8 31.0 23.0 75 3.3 E 11 15 6 8 1011.0 - 0.0
04/10:30pm 28.1 31.4 22.5 71 3.8 E 9 13 5 7 1011.1 - 0.0
04/10:00pm 28.2 31.1 22.4 71 3.9 E 11 17 6 9 1011.3 - 0.0
04/09:30pm 28.2 30.4 22.6 71 3.8 E 15 20 8 11 1010.9 - 0.0
04/09:00pm 28.2 30.1 22.8 72 3.7 ESE 17 26 9 14 1010.8 1010.7 0.0
04/08:30pm 28.3 31.0 22.9 72 3.7 E 13 22 7 12 1010.4 - 0.0
04/08:00pm 28.4 31.2 23.0 72 3.7 E 13 19 7 10 1010.4 - 0.0
04/07:30pm 28.4 31.4 23.3 74 3.5 E 13 20 7 11 1009.8 - 0.0
04/07:00pm 28.5 29.9 22.8 71 3.9 E 20 26 11 14 1009.5 - 0.0
04/06:30pm 28.8 30.2 22.5 68 4.3 ENE 19 28 10 15 1009.5 - 0.0
04/06:00pm 29.5 29.9 22.4 65 4.8 ENE 24 32 13 17 1009.2 1009.1 0.0
04/05:30pm 30.0 29.9 22.3 63 5.2 ENE 26 35 14 19 1009.0 - 0.0
04/05:00pm 31.0 30.7 22.5 60 5.8 ENE 28 35 15 19 1008.7 - 0.0
04/04:30pm 31.3 30.2 22.5 59 6.0 ENE 32 37 17 20 1008.5 - 0.0
04/04:00pm 32.2 31.6 22.7 57 6.5 ENE 30 39 16 21 1008.5 - 0.0
04/03:30pm 32.3 32.1 22.7 57 6.6 ENE 28 35 15 19 1008.6 - 0.0
04/03:00pm 30.9 30.4 22.2 59 5.9 NE 28 32 15 17 1008.7 1008.6 0.0
04/02:30pm 30.8 30.5 21.1 56 6.5 NE 24 30 13 16 1009.0 - 0.0

Other Formats:

Comma delimited format used in spreadsheet applications
http://www.bom.gov.au/fwo/IDQ60801/IDQ60801.94294.axf

JavaScript Object Notation format (JSON) in row-major order
http://www.bom.gov.au/fwo/IDQ60801/IDQ60801.94294.json